createdAt,value
2019-01-02T00:00:03.600Z,1.99
2019-01-02T00:01:02.825Z,2.3
2019-01-02T00:02:03.783Z,2.72
2019-01-02T00:03:04.193Z,2.36
2019-01-02T00:04:03.087Z,2.36
2019-01-02T00:05:03.060Z,2.06
2019-01-02T00:06:02.873Z,2.06
2019-01-02T00:08:02.437Z,2.39
2019-01-02T00:09:03.440Z,2.39
2019-01-02T00:10:03.282Z,2.19
2019-01-02T00:12:03.298Z,2.32
2019-01-02T00:13:03.254Z,2.81
2019-01-02T00:14:03.227Z,1.81
2019-01-02T00:15:03.393Z,1.81
2019-01-02T00:16:03.222Z,2.21
2019-01-02T00:17:02.755Z,2.05
2019-01-02T00:18:03.213Z,3.01
2019-01-02T00:19:03.929Z,3.01
2019-01-02T00:20:03.315Z,2.21
2019-01-02T00:21:03.166Z,2.21
2019-01-02T00:22:03.424Z,2.2
2019-01-02T00:23:02.937Z,2.2
2019-01-02T00:24:04.810Z,1.83
2019-01-02T00:25:03.716Z,1.83
2019-01-02T00:26:03.658Z,2.25
2019-01-02T00:27:03.409Z,2.02
2019-01-02T00:28:03.684Z,2.26
2019-01-02T00:29:03.745Z,2.26
2019-01-02T00:30:03.616Z,2.18
2019-01-02T00:31:03.898Z,2.18
2019-01-02T00:32:04.152Z,1.82
2019-01-02T00:33:03.323Z,2.24
2019-01-02T00:34:03.571Z,2.13
2019-01-02T00:35:03.337Z,1.82
2019-01-02T00:36:03.709Z,2.18
2019-01-02T00:37:04.553Z,2.18
2019-01-02T00:38:03.632Z,1.96
2019-01-02T00:39:03.495Z,2.43
2019-01-02T00:40:03.507Z,2.55
2019-01-02T00:41:03.166Z,2.24
2019-01-02T00:42:03.410Z,2.57
2019-01-02T00:43:03.321Z,2.57
2019-01-02T00:44:03.066Z,1.9
2019-01-02T00:45:03.854Z,0.79
2019-01-02T00:46:03.255Z,0.86
2019-01-02T00:47:04.166Z,0.86
2019-01-02T00:48:03.722Z,1.31
2019-01-02T00:49:02.910Z,0.95
2019-01-02T00:50:03.630Z,1.15
2019-01-02T00:51:03.287Z,1.33
2019-01-02T00:52:05.394Z,1.04
2019-01-02T00:53:04.000Z,0.94
2019-01-02T00:54:03.064Z,1.19
2019-01-02T00:55:03.696Z,1.19
2019-01-02T00:56:02.429Z,1.18
2019-01-02T00:57:03.323Z,1.01
2019-01-02T00:58:04.112Z,1.24
2019-01-02T00:59:02.978Z,1.24
2019-01-02T01:00:04.105Z,1.26
2019-01-02T01:01:03.578Z,1.26
2019-01-02T01:02:02.603Z,2.14
2019-01-02T01:03:03.216Z,2.14
2019-01-02T01:04:02.998Z,1.15
2019-01-02T01:05:03.314Z,1.15
2019-01-02T01:06:03.037Z,1.08
2019-01-02T01:07:03.209Z,1.08
2019-01-02T01:08:03.447Z,1.66
2019-01-02T01:09:04.966Z,1.05
2019-01-02T01:10:03.857Z,1.38
2019-01-02T01:11:03.627Z,1.36
2019-01-02T01:12:03.498Z,1.25
2019-01-02T01:13:03.266Z,1.22
2019-01-02T01:14:03.526Z,1.24
2019-01-02T01:15:03.396Z,1.6
2019-01-02T01:16:03.398Z,1.38
2019-01-02T01:17:02.566Z,1.43
2019-01-02T01:18:03.011Z,1.01
2019-01-02T01:19:03.618Z,1.01
2019-01-02T01:20:03.785Z,1.31
2019-01-02T01:21:02.029Z,1.64
2019-01-02T01:22:03.816Z,1.91
2019-01-02T01:23:03.179Z,1.91
2019-01-02T01:24:03.351Z,1.56
2019-01-02T01:25:03.032Z,1.93
2019-01-02T01:26:03.855Z,2.14
2019-01-02T01:27:03.130Z,2.14
2019-01-02T01:28:03.587Z,2.05
2019-01-02T01:29:03.794Z,2.05
2019-01-02T01:30:03.525Z,1.64
2019-01-02T01:31:03.081Z,1.49
2019-01-02T01:32:02.990Z,1.42
2019-01-02T01:33:02.596Z,1.39
2019-01-02T01:34:02.897Z,1.62
2019-01-02T01:35:03.881Z,1.62
2019-01-02T01:36:03.579Z,1.89
2019-01-02T01:37:03.871Z,0.92
2019-01-02T01:38:03.712Z,1.74
2019-01-02T01:39:03.919Z,0.98
2019-01-02T01:40:03.677Z,1.09
2019-01-02T01:41:03.281Z,1.02
2019-01-02T01:42:03.638Z,1.02
2019-01-02T01:43:03.651Z,1.02
2019-01-02T01:44:03.137Z,1.2
2019-01-02T01:45:03.072Z,1.2
2019-01-02T01:46:03.167Z,1.04
2019-01-02T01:47:04.199Z,0.71
2019-01-02T01:48:02.695Z,0.61
2019-01-02T01:49:03.389Z,0.66
2019-01-02T01:50:03.097Z,0.66
2019-01-02T01:51:03.152Z,0.55
2019-01-02T01:52:04.135Z,1.1
2019-01-02T01:53:03.635Z,0.98
2019-01-02T01:54:04.371Z,0.98
2019-01-02T01:55:04.037Z,0.98
2019-01-02T01:56:03.352Z,0.87
2019-01-02T01:57:03.350Z,0.79
2019-01-02T01:58:03.029Z,0.8
2019-01-02T01:59:03.733Z,0.93
2019-01-02T02:00:03.497Z,0.91
2019-01-02T02:01:03.256Z,0.92
2019-01-02T02:02:03.430Z,0.84
2019-01-02T02:03:03.871Z,1.14
2019-01-02T02:05:03.265Z,0.95
2019-01-02T02:06:03.900Z,0.95
2019-01-02T02:07:03.392Z,1.05
2019-01-02T02:08:01.812Z,1.09
2019-01-02T02:09:03.961Z,1.09
2019-01-02T02:10:02.571Z,0.66
2019-01-02T02:11:03.544Z,0.66
2019-01-02T02:12:03.421Z,1.5
2019-01-02T02:13:02.893Z,1.5
2019-01-02T02:14:08.501Z,0.86
2019-01-02T02:15:03.271Z,0.92
2019-01-02T02:16:03.627Z,1.29
2019-01-02T02:17:03.411Z,1.29
2019-01-02T02:18:02.744Z,1.12
2019-01-02T02:19:03.215Z,0.96
2019-01-02T02:20:03.376Z,1.03
2019-01-02T02:21:02.828Z,1.03
2019-01-02T02:22:03.204Z,1.16
2019-01-02T02:23:03.355Z,1.01
2019-01-02T02:24:03.203Z,1.04
2019-01-02T02:25:03.713Z,1.06
2019-01-02T02:26:03.680Z,1.05
2019-01-02T02:27:03.526Z,1.02
2019-01-02T02:28:03.016Z,1.36
2019-01-02T02:29:03.729Z,1.36
2019-01-02T02:30:03.660Z,1.36
2019-01-02T02:31:03.036Z,1.1
2019-01-02T02:32:02.042Z,1.23
2019-01-02T02:33:03.337Z,1.44
2019-01-02T02:34:03.375Z,1.44
2019-01-02T02:35:02.881Z,1.04
2019-01-02T02:36:03.259Z,1.35
2019-01-02T02:38:03.326Z,1.26
2019-01-02T02:39:04.213Z,1.47
2019-01-02T02:40:03.024Z,2.71
2019-01-02T02:41:03.784Z,2
2019-01-02T02:42:03.035Z,1.06
2019-01-02T02:43:03.701Z,1.32
2019-01-02T02:44:03.765Z,1.32
2019-01-02T02:45:02.955Z,1.46
2019-01-02T02:46:03.430Z,1.35
2019-01-02T02:47:02.870Z,1.53
2019-01-02T02:48:04.064Z,1.42
2019-01-02T02:50:03.386Z,2.18
2019-01-02T02:51:04.311Z,2.18
2019-01-02T02:52:03.519Z,1.64
2019-01-02T02:53:04.006Z,1.62
2019-01-02T02:54:02.653Z,1.29
2019-01-02T02:55:03.539Z,1.29
2019-01-02T02:56:03.337Z,1.3
2019-01-02T02:57:02.924Z,1.29
2019-01-02T02:58:02.696Z,1.25
2019-01-02T02:59:03.875Z,1.52
2019-01-02T03:00:03.125Z,1.08
2019-01-02T03:01:04.683Z,1.08
2019-01-02T03:02:03.294Z,1.84
2019-01-02T03:03:03.574Z,1.37
2019-01-02T03:04:03.491Z,1.38
2019-01-02T03:05:03.894Z,1.44
2019-01-02T03:06:03.245Z,1.44
2019-01-02T03:07:02.967Z,1.07
2019-01-02T03:08:03.973Z,1.37
2019-01-02T03:09:03.431Z,1.4
2019-01-02T03:10:03.736Z,1.46
2019-01-02T03:11:03.573Z,1.24
2019-01-02T03:12:02.973Z,1.34
2019-01-02T03:13:02.990Z,1.56
2019-01-02T03:14:04.016Z,1.12
2019-01-02T03:15:03.154Z,1.12
2019-01-02T03:16:04.041Z,1.12
2019-01-02T03:17:03.849Z,1.41
2019-01-02T03:18:02.748Z,1.41
2019-01-02T03:20:03.987Z,1.28
2019-01-02T03:21:03.758Z,1.14
2019-01-02T03:22:03.876Z,0.82
2019-01-02T03:23:04.050Z,1.25
2019-01-02T03:24:02.989Z,1.25
2019-01-02T03:25:03.287Z,1.12
2019-01-02T03:26:03.334Z,1.18
2019-01-02T03:27:03.590Z,1.21
2019-01-02T03:28:03.969Z,1.74
2019-01-02T03:29:03.044Z,1.3
2019-01-02T03:30:07.471Z,1.3
2019-01-02T03:31:03.498Z,1.32
2019-01-02T03:32:04.083Z,1.32
2019-01-02T03:33:04.071Z,1.41
2019-01-02T03:34:03.254Z,1.41
2019-01-02T03:36:04.761Z,1.42
2019-01-02T03:37:02.870Z,1.57
2019-01-02T03:39:03.491Z,1.89
2019-01-02T03:40:03.636Z,1.89
2019-01-02T03:41:03.490Z,1.67
2019-01-02T03:42:02.825Z,2.02
2019-01-02T03:43:03.407Z,1.51
2019-01-02T03:44:02.922Z,1.51
2019-01-02T03:45:03.518Z,1.54
2019-01-02T03:46:03.507Z,1.82
2019-01-02T03:47:04.370Z,1.82
2019-01-02T03:48:03.434Z,1.51
2019-01-02T03:49:02.763Z,1.15
2019-01-02T03:50:03.494Z,1.15
2019-01-02T03:51:03.759Z,1.42
2019-01-02T03:52:02.949Z,1.93
2019-01-02T03:53:03.907Z,1.41
2019-01-02T03:54:03.046Z,1.66
2019-01-02T03:55:03.103Z,1.32
2019-01-02T03:56:02.958Z,2.03
2019-01-02T03:57:03.686Z,2.03
2019-01-02T03:58:03.309Z,1.73
2019-01-02T03:59:01.994Z,1.39
2019-01-02T04:00:03.401Z,2.03
2019-01-02T04:01:03.164Z,2.03
2019-01-02T04:02:03.348Z,1.4
2019-01-02T04:03:02.479Z,1.41
2019-01-02T04:04:03.758Z,1.41
2019-01-02T04:05:03.087Z,1.75
2019-01-02T04:06:02.959Z,1.75
2019-01-02T04:07:03.236Z,1.4
2019-01-02T04:08:02.971Z,1.9
2019-01-02T04:09:03.701Z,1.9
2019-01-02T04:10:03.253Z,1.68
2019-01-02T04:11:03.566Z,3.21
2019-01-02T04:12:03.625Z,3.21
2019-01-02T04:13:02.942Z,1.38
2019-01-02T04:14:03.634Z,2.07
2019-01-02T04:15:03.852Z,1.57
2019-01-02T04:16:03.369Z,1.54
2019-01-02T04:17:02.809Z,1.68
2019-01-02T04:18:03.909Z,1.68
2019-01-02T04:19:04.132Z,1.89
2019-01-02T04:20:03.698Z,1.82
2019-01-02T04:21:03.277Z,1.62
2019-01-02T04:22:03.132Z,1.22
2019-01-02T04:23:02.826Z,1.55
2019-01-02T04:24:03.170Z,1.39
2019-01-02T04:25:03.417Z,1.39
2019-01-02T04:26:03.845Z,1.87
2019-01-02T04:27:03.201Z,1.79
2019-01-02T04:28:03.691Z,1.73
2019-01-02T04:29:03.275Z,2.2
2019-01-02T04:30:02.988Z,2.2
2019-01-02T04:31:02.874Z,2.58
2019-01-02T04:32:03.223Z,2.58
2019-01-02T04:33:03.124Z,2.66
2019-01-02T04:34:02.869Z,2.58
2019-01-02T04:35:03.610Z,2.24
2019-01-02T04:36:03.222Z,2.24
2019-01-02T04:37:03.134Z,2.01
2019-01-02T04:38:03.807Z,2.01
2019-01-02T04:39:03.202Z,3.05
2019-01-02T04:40:03.154Z,3.05
2019-01-02T04:41:03.474Z,2.15
2019-01-02T04:42:03.267Z,2.11
2019-01-02T04:43:02.808Z,2.21
2019-01-02T04:44:03.474Z,1.82
2019-01-02T04:45:04.058Z,2.19
2019-01-02T04:46:02.943Z,2.31
2019-01-02T04:47:02.990Z,1.66
2019-01-02T04:49:03.470Z,1.61
2019-01-02T04:50:03.727Z,2.15
2019-01-02T04:51:03.677Z,1.98
2019-01-02T04:52:02.401Z,1.98
2019-01-02T04:53:03.927Z,2.35
2019-01-02T04:54:03.089Z,2.35
2019-01-02T04:55:03.611Z,2.59
2019-01-02T04:56:03.578Z,2.59
2019-01-02T04:57:03.502Z,2.9
2019-01-02T04:58:03.278Z,2.49
2019-01-02T04:59:02.960Z,1.64
2019-01-02T05:00:03.383Z,2.11
2019-01-02T05:01:03.540Z,2.11
2019-01-02T05:02:03.240Z,2.15
2019-01-02T05:03:04.094Z,2.04
2019-01-02T05:04:03.272Z,1.72
2019-01-02T05:05:03.334Z,2.86
2019-01-02T05:06:03.299Z,2.68
2019-01-02T05:07:03.472Z,2.75
2019-01-02T05:08:02.840Z,1.94
2019-01-02T05:09:07.082Z,1.64
2019-01-02T05:12:03.328Z,2.23
2019-01-02T05:13:03.010Z,2.23
2019-01-02T05:14:02.134Z,2.41
2019-01-02T05:15:03.035Z,2.56
2019-01-02T05:16:02.271Z,2.16
2019-01-02T05:17:03.628Z,2.35
2019-01-02T05:18:03.332Z,2.21
2019-01-02T05:19:03.506Z,1.96
2019-01-02T05:20:03.118Z,1.71
2019-01-02T05:21:03.790Z,1.71
2019-01-02T05:22:03.286Z,2.11
2019-01-02T05:23:03.118Z,1.94
2019-01-02T05:24:03.635Z,2.24
2019-01-02T05:25:03.674Z,2.25
2019-01-02T05:26:03.009Z,2.05
2019-01-02T05:27:03.029Z,2.05
2019-01-02T05:28:02.725Z,2.83
2019-01-02T05:29:03.585Z,2.1
2019-01-02T05:30:03.424Z,2.16
2019-01-02T05:31:04.041Z,2.09
2019-01-02T05:32:03.536Z,2.58
2019-01-02T05:33:03.202Z,2.11
2019-01-02T05:34:03.307Z,2.05
2019-01-02T05:35:03.017Z,3.68
2019-01-02T05:36:02.145Z,2.26
2019-01-02T05:37:03.591Z,2.26
2019-01-02T05:38:03.276Z,2.71
2019-01-02T05:39:02.940Z,2.2
2019-01-02T05:40:03.762Z,2.52
2019-01-02T05:41:03.412Z,2.52
2019-01-02T05:42:03.739Z,2.6
2019-01-02T05:43:03.573Z,2.6
2019-01-02T05:44:03.260Z,2.48
2019-01-02T05:45:02.846Z,2.48
2019-01-02T05:46:03.485Z,2.51
2019-01-02T05:47:03.033Z,2.51
2019-01-02T05:48:02.754Z,2.78
2019-01-02T05:49:02.937Z,2.78
2019-01-02T05:50:02.986Z,1.64
2019-01-02T05:51:03.856Z,1.64
2019-01-02T05:52:03.247Z,1.76
2019-01-02T05:53:03.016Z,2.55
2019-01-02T05:54:03.600Z,2.32
2019-01-02T05:55:03.498Z,2.32
2019-01-02T05:58:02.918Z,2.69
2019-01-02T05:59:03.455Z,2.56
2019-01-02T06:00:03.061Z,2.56
2019-01-02T06:01:03.309Z,2.46
2019-01-02T06:02:02.102Z,3.1
2019-01-02T06:03:03.172Z,3.62
2019-01-02T06:04:04.784Z,2.28
2019-01-02T06:05:02.903Z,2.28
2019-01-02T06:06:03.449Z,2.32
2019-01-02T06:07:02.801Z,1.86
2019-01-02T06:08:03.401Z,2.53
2019-01-02T06:09:02.966Z,2.53
2019-01-02T06:10:03.558Z,3.25
2019-01-02T06:11:03.703Z,2.67
2019-01-02T06:12:02.670Z,2.3
2019-01-02T06:13:03.483Z,2.09
2019-01-02T06:14:03.150Z,3.11
2019-01-02T06:15:03.110Z,2.45
2019-01-02T06:16:03.598Z,2.68
2019-01-02T06:17:04.105Z,2.68
2019-01-02T06:19:05.819Z,2.48
2019-01-02T06:20:03.481Z,3.45
2019-01-02T06:21:02.942Z,3.85
2019-01-02T06:22:02.681Z,2.61
2019-01-02T06:23:02.857Z,2.31
2019-01-02T06:24:01.893Z,2.46
2019-01-02T06:25:03.246Z,3.64
2019-01-02T06:26:02.246Z,2.65
2019-01-02T06:27:03.970Z,2.59
2019-01-02T06:28:03.167Z,2.75
2019-01-02T06:29:03.447Z,2.5
2019-01-02T06:30:03.584Z,2.5
2019-01-02T06:31:03.396Z,2.18
2019-01-02T06:32:02.710Z,2.18
2019-01-02T06:33:03.048Z,3.14
2019-01-02T06:34:02.932Z,3.14
2019-01-02T06:35:03.890Z,2.11
2019-01-02T06:36:03.163Z,2.11
2019-01-02T06:37:03.232Z,3.37
2019-01-02T06:38:02.868Z,3.37
2019-01-02T06:39:03.683Z,2.51
2019-01-02T06:40:03.425Z,2.46
2019-01-02T06:41:02.827Z,2.88
2019-01-02T06:42:02.815Z,2.37
2019-01-02T06:43:03.560Z,2.78
2019-01-02T06:44:03.662Z,2.66
2019-01-02T06:45:02.663Z,2.99
2019-01-02T06:46:03.929Z,2.86
2019-01-02T06:47:03.597Z,2.51
2019-01-02T06:48:03.087Z,2.51
2019-01-02T06:49:02.942Z,2.54
2019-01-02T06:50:03.606Z,2.5
2019-01-02T06:51:03.277Z,2.66
2019-01-02T06:52:02.073Z,2.64
2019-01-02T06:53:02.897Z,2.36
2019-01-02T06:54:02.744Z,2.99
2019-01-02T06:55:02.883Z,2.64
2019-01-02T06:56:03.095Z,2.66
2019-01-02T06:57:03.595Z,2.84
2019-01-02T06:58:03.506Z,2.84
2019-01-02T06:59:03.344Z,2.83
2019-01-02T07:00:02.873Z,2.83
2019-01-02T07:01:03.957Z,2.68
2019-01-02T07:02:03.797Z,2.68
2019-01-02T07:03:03.167Z,3.96
2019-01-02T07:04:02.759Z,3.96
2019-01-02T07:05:03.453Z,2.85
2019-01-02T07:06:03.353Z,2.5
2019-01-02T07:07:03.353Z,2.66
2019-01-02T07:08:03.141Z,2.83
2019-01-02T07:09:03.457Z,2.83
2019-01-02T07:10:02.948Z,2.48
2019-01-02T07:11:03.180Z,2.48
2019-01-02T07:12:03.032Z,2.69
2019-01-02T07:13:02.757Z,2.94
2019-01-02T07:14:02.991Z,2.39
2019-01-02T07:15:03.411Z,2.66
2019-01-02T07:16:03.174Z,2.66
2019-01-02T07:17:03.687Z,2.36
2019-01-02T07:18:02.869Z,2.36
2019-01-02T07:19:03.607Z,2.98
2019-01-02T07:20:03.609Z,2.61
2019-01-02T07:21:03.471Z,2.61
2019-01-02T07:22:03.342Z,2.61
2019-01-02T07:23:03.709Z,2.78
2019-01-02T07:24:03.163Z,2.84
2019-01-02T07:25:03.781Z,2.97
2019-01-02T07:26:03.495Z,2.97
2019-01-02T07:27:03.194Z,2.69
2019-01-02T07:28:02.812Z,2.87
2019-01-02T07:29:03.557Z,3.49
2019-01-02T07:30:02.856Z,2.86
2019-01-02T07:32:04.564Z,3.34
2019-01-02T07:33:03.406Z,2.73
2019-01-02T07:34:02.688Z,2.89
2019-01-02T07:35:03.360Z,3.09
2019-01-02T07:36:02.719Z,3.09
2019-01-02T07:37:03.888Z,2.58
2019-01-02T07:38:03.528Z,2.76
2019-01-02T07:39:03.402Z,3.24
2019-01-02T07:40:03.301Z,3.24
2019-01-02T07:41:03.460Z,3.15
2019-01-02T07:42:03.174Z,3.15
2019-01-02T07:43:03.710Z,2.88
2019-01-02T07:44:03.250Z,2.54
2019-01-02T07:45:02.756Z,3.26
2019-01-02T07:46:03.897Z,3.26
2019-01-02T07:47:04.318Z,3.09
2019-01-02T07:48:03.325Z,3.62
2019-01-02T07:49:03.232Z,3.29
2019-01-02T07:50:03.450Z,2.93
2019-01-02T07:51:02.754Z,3.18
2019-01-02T07:53:02.851Z,3.13
2019-01-02T07:54:03.710Z,3.84
2019-01-02T07:55:02.583Z,2.54
2019-01-02T07:56:03.275Z,2.91
2019-01-02T07:57:06.741Z,2.91
2019-01-02T07:58:02.512Z,3.01
2019-01-02T07:59:01.946Z,3.08
2019-01-02T08:00:03.783Z,3.3
2019-01-02T08:01:01.988Z,3.48
2019-01-02T08:02:03.270Z,3.78
2019-01-02T08:03:02.926Z,3.78
2019-01-02T08:04:02.826Z,3.16
2019-01-02T08:05:03.705Z,2.74
2019-01-02T08:06:02.957Z,3.09
2019-01-02T08:07:03.704Z,3.09
2019-01-02T08:08:02.823Z,3.48
2019-01-02T08:09:03.417Z,3.48
2019-01-02T08:10:02.971Z,3.64
2019-01-02T08:11:04.415Z,3.64
2019-01-02T08:12:03.539Z,3.48
2019-01-02T08:13:03.235Z,3.48
2019-01-02T08:14:03.693Z,3.46
2019-01-02T08:15:03.815Z,3.28
2019-01-02T08:16:02.920Z,3.11
2019-01-02T08:17:03.670Z,3.18
2019-01-02T08:18:02.816Z,3.34
2019-01-02T08:19:02.805Z,2.66
2019-01-02T08:20:04.218Z,3.5
2019-01-02T08:22:02.714Z,3.49
2019-01-02T08:23:02.710Z,3.68
2019-01-02T08:24:03.026Z,3.52
2019-01-02T08:25:03.073Z,3.52
2019-01-02T08:26:02.813Z,2.89
2019-01-02T08:27:03.782Z,3.04
2019-01-02T08:28:03.119Z,2.92
2019-01-02T08:29:02.874Z,2.69
2019-01-02T08:30:03.310Z,3.26
2019-01-02T08:31:02.987Z,3.76
2019-01-02T08:32:03.266Z,3.13
2019-01-02T08:33:03.576Z,3.13
2019-01-02T08:34:02.818Z,3.75
2019-01-02T08:35:03.326Z,3.75
2019-01-02T08:36:03.606Z,3.17
2019-01-02T08:37:03.215Z,3.17
2019-01-02T08:38:04.037Z,2.92
2019-01-02T08:39:03.268Z,2.92
2019-01-02T08:40:05.281Z,2.71
2019-01-02T08:41:02.799Z,3.24
2019-01-02T08:42:05.099Z,2.96
2019-01-02T08:43:03.068Z,2.92
2019-01-02T08:44:03.658Z,2.88
2019-01-02T08:45:03.200Z,2.88
2019-01-02T08:46:02.884Z,3.43
2019-01-02T08:47:02.841Z,3.07
2019-01-02T08:48:03.831Z,2.36
2019-01-02T08:49:03.344Z,2.36
2019-01-02T08:50:02.412Z,3.02
2019-01-02T08:51:02.904Z,2.59
2019-01-02T08:52:03.086Z,3.61
2019-01-02T08:53:02.954Z,3.61
2019-01-02T08:54:02.834Z,2.69
2019-01-02T08:55:03.947Z,3.16
2019-01-02T08:56:04.876Z,3.16
2019-01-02T08:57:04.071Z,3.18
2019-01-02T08:58:03.391Z,3.13
2019-01-02T08:59:03.198Z,3.13
2019-01-02T09:00:03.732Z,2.78
2019-01-02T09:01:04.294Z,2.78
2019-01-02T09:02:03.148Z,2.85
2019-01-02T09:03:04.347Z,3.75
2019-01-02T09:04:03.760Z,3.75
2019-01-02T09:05:03.299Z,2.96
2019-01-02T09:06:02.771Z,3.53
2019-01-02T09:07:04.318Z,3.53
2019-01-02T09:08:03.722Z,3.25
2019-01-02T09:09:03.013Z,3.08
2019-01-02T09:10:02.678Z,2.87
2019-01-02T09:11:02.406Z,3.99
2019-01-02T09:12:04.437Z,3.41
2019-01-02T09:13:02.845Z,3.41
2019-01-02T09:14:03.175Z,3.32
2019-01-02T09:15:03.816Z,4.16
2019-01-02T09:16:05.228Z,4.16
2019-01-02T09:17:03.719Z,2.91
2019-01-02T09:18:03.267Z,4.76
2019-01-02T09:19:02.993Z,4.76
2019-01-02T09:20:03.173Z,4.31
2019-01-02T09:21:03.941Z,4.06
2019-01-02T09:22:03.156Z,4.32
2019-01-02T09:23:03.067Z,6.22
2019-01-02T09:24:02.830Z,3.91
2019-01-02T09:25:03.440Z,2.81
2019-01-02T09:26:03.100Z,2.37
2019-01-02T09:27:03.439Z,3.56
2019-01-02T09:28:03.151Z,4.01
2019-01-02T09:29:03.814Z,2.88
2019-01-02T09:30:03.081Z,2.75
2019-01-02T09:31:03.985Z,3.38
2019-01-02T09:33:03.598Z,3.05
2019-01-02T09:34:02.979Z,2.56
2019-01-02T09:35:03.574Z,3.63
2019-01-02T09:36:02.932Z,3.31
2019-01-02T09:37:03.455Z,3.31
2019-01-02T09:38:03.045Z,3.09
2019-01-02T09:39:03.687Z,3.09
2019-01-02T09:40:05.259Z,3.19
2019-01-02T09:41:03.991Z,3.19
2019-01-02T09:42:02.705Z,3.15
2019-01-02T09:43:03.400Z,3.15
2019-01-02T09:44:02.873Z,3.43
2019-01-02T09:45:08.000Z,3
2019-01-02T09:46:03.126Z,3.05
2019-01-02T09:47:03.764Z,3.24
2019-01-02T09:48:03.745Z,3.17
2019-01-02T09:49:02.968Z,3.43
2019-01-02T09:50:04.419Z,3.43
2019-01-02T09:51:03.749Z,2.39
2019-01-02T09:52:03.010Z,3.34
2019-01-02T09:53:01.854Z,3.34
2019-01-02T09:54:03.480Z,3.02
2019-01-02T09:55:03.918Z,3.02
2019-01-02T09:56:02.216Z,3.24
2019-01-02T09:57:03.348Z,3.45
2019-01-02T09:58:03.192Z,2.61
2019-01-02T09:59:03.615Z,3.15
2019-01-02T10:00:02.964Z,2.98
2019-01-02T10:01:03.420Z,2.98
2019-01-02T10:02:02.835Z,2.99
2019-01-02T10:03:03.532Z,2.99
2019-01-02T10:04:03.098Z,3.51
2019-01-02T10:05:04.235Z,3.51
2019-01-02T10:06:03.355Z,3.04
2019-01-02T10:07:02.910Z,3.04
2019-01-02T10:08:03.289Z,2.61
2019-01-02T10:09:03.419Z,2.4
2019-01-02T10:10:02.849Z,2.4
2019-01-02T10:11:04.682Z,2.92
2019-01-02T10:12:03.469Z,2.6
2019-01-02T10:14:03.298Z,2.69
2019-01-02T10:15:03.631Z,2.26
2019-01-02T10:16:04.297Z,2.21
2019-01-02T10:17:03.070Z,2.85
2019-01-02T10:18:02.753Z,2.84
2019-01-02T10:19:02.918Z,2.84
2019-01-02T10:20:03.796Z,2.35
2019-01-02T10:21:03.442Z,2.53
2019-01-02T10:22:03.260Z,2.53
2019-01-02T10:23:02.759Z,2.76
2019-01-02T10:24:02.972Z,3.32
2019-01-02T10:25:03.109Z,2.98
2019-01-02T10:26:03.686Z,2.98
2019-01-02T10:27:03.063Z,2.72
2019-01-02T10:28:03.631Z,2.25
2019-01-02T10:29:03.458Z,2.25
2019-01-02T10:30:02.557Z,2.35
2019-01-02T10:31:03.478Z,3.21
2019-01-02T10:32:03.239Z,2.86
2019-01-02T10:33:03.246Z,2.55
2019-01-02T10:34:05.383Z,2.77
2019-01-02T10:35:03.784Z,2.37
2019-01-02T10:36:03.934Z,2.44
2019-01-02T10:37:03.089Z,2.44
2019-01-02T10:39:03.589Z,2.18
2019-01-02T10:40:02.322Z,2.45
2019-01-02T10:41:02.680Z,2.55
2019-01-02T10:42:03.575Z,2.05
2019-01-02T10:43:02.991Z,2.66
2019-01-02T10:44:03.511Z,2.8
2019-01-02T10:45:03.463Z,2.62
2019-01-02T10:46:03.247Z,3.15
2019-01-02T10:47:03.864Z,2.46
2019-01-02T10:48:03.709Z,2.62
2019-01-02T10:49:03.909Z,2.49
2019-01-02T10:50:03.161Z,2.49
2019-01-02T10:51:03.554Z,0
2019-01-02T10:52:03.634Z,2.41
2019-01-02T10:53:04.083Z,2.41
2019-01-02T10:54:03.095Z,2.45
2019-01-02T10:55:03.559Z,1.8
2019-01-02T10:56:03.643Z,1.8
2019-01-02T10:57:02.986Z,2.86
2019-01-02T10:58:04.040Z,3.02
2019-01-02T10:59:03.090Z,2.62
2019-01-02T11:00:03.621Z,2.62
2019-01-02T11:01:03.270Z,2.62
2019-01-02T11:02:03.468Z,2.68
2019-01-02T11:04:02.894Z,2.39
2019-01-02T11:05:02.683Z,2.31
2019-01-02T11:06:03.250Z,2.75
2019-01-02T11:07:03.042Z,2.74
2019-01-02T11:08:02.745Z,2.89
2019-01-02T11:09:02.722Z,2.65
2019-01-02T11:10:03.565Z,2.65
2019-01-02T11:11:03.061Z,2.59
2019-01-02T11:12:04.098Z,2.32
2019-01-02T11:13:03.835Z,2.35
2019-01-02T11:14:03.982Z,2.35
2019-01-02T11:15:03.905Z,2.24
2019-01-02T11:16:03.296Z,2.24
2019-01-02T11:17:04.355Z,2.16
2019-01-02T11:18:03.465Z,2.49
2019-01-02T11:19:02.812Z,1.95
2019-01-02T11:20:03.369Z,2.58
2019-01-02T11:21:03.068Z,2.58
2019-01-02T11:22:02.855Z,3.05
2019-01-02T11:23:03.428Z,2.39
2019-01-02T11:24:03.972Z,2.92
2019-01-02T11:25:05.427Z,2.92
2019-01-02T11:26:03.177Z,2.5
2019-01-02T11:27:03.080Z,2.44
2019-01-02T11:29:02.493Z,2.69
2019-01-02T11:30:03.052Z,2.69
2019-01-02T11:31:03.164Z,2.26
2019-01-02T11:32:02.811Z,3.13
2019-01-02T11:33:03.940Z,3.13
2019-01-02T11:34:02.742Z,3.13
2019-01-02T11:35:04.237Z,2.05
2019-01-02T11:36:03.223Z,2.13
2019-01-02T11:37:03.139Z,2.41
2019-01-02T11:38:02.814Z,2.59
2019-01-02T11:39:03.735Z,2.59
2019-01-02T11:40:03.344Z,2.92
2019-01-02T11:41:02.799Z,2.28
2019-01-02T11:42:02.920Z,2.91
2019-01-02T11:43:03.656Z,1.83
2019-01-02T11:44:03.264Z,2.55
2019-01-02T11:45:03.005Z,2.55
2019-01-02T11:46:03.107Z,3.47
2019-01-02T11:47:04.475Z,3.47
2019-01-02T11:48:03.246Z,2.47
2019-01-02T11:49:02.831Z,2.47
2019-01-02T11:50:03.609Z,1.88
2019-01-02T11:51:04.295Z,2.78
2019-01-02T11:52:03.016Z,2.41
2019-01-02T11:53:02.886Z,2.93
2019-01-02T11:54:04.192Z,2.68
2019-01-02T11:55:03.984Z,2.68
2019-01-02T11:56:03.122Z,2.99
2019-01-02T11:57:03.393Z,2.62
2019-01-02T11:58:03.606Z,2.85
2019-01-02T11:59:03.627Z,2.85
2019-01-02T12:00:03.494Z,2.1
2019-01-02T12:01:03.151Z,2.78
2019-01-02T12:02:04.689Z,2.2
2019-01-02T12:03:03.438Z,2.2
2019-01-02T12:04:03.332Z,2.77
2019-01-02T12:05:03.156Z,2.77
2019-01-02T12:06:02.979Z,3.66
2019-01-02T12:07:02.799Z,2.63
2019-01-02T12:08:03.321Z,2.99
2019-01-02T12:09:03.148Z,2.99
2019-01-02T12:10:03.675Z,2.62
2019-01-02T12:11:03.418Z,2.6
2019-01-02T12:12:03.483Z,2.05
2019-01-02T12:13:02.870Z,2.66
2019-01-02T12:14:03.611Z,1.85
2019-01-02T12:15:02.372Z,2.56
2019-01-02T12:16:03.789Z,2.56
2019-01-02T12:17:02.519Z,2.41
2019-01-02T12:18:03.407Z,3.02
2019-01-02T12:19:03.118Z,3.02
2019-01-02T12:20:03.212Z,2.23
2019-01-02T12:21:03.072Z,2.23
2019-01-02T12:22:04.375Z,2.29
2019-01-02T12:23:04.030Z,2.29
2019-01-02T12:24:02.838Z,2.51
2019-01-02T12:25:03.195Z,2.51
2019-01-02T12:26:03.088Z,3.05
2019-01-02T12:27:02.899Z,3.05
2019-01-02T12:28:02.845Z,2.25
2019-01-02T12:29:03.548Z,2.25
2019-01-02T12:30:03.239Z,2.68
2019-01-02T12:31:02.953Z,2.25
2019-01-02T12:32:03.063Z,2.86
2019-01-02T12:33:03.518Z,2.86
2019-01-02T12:34:03.598Z,3.2
2019-01-02T12:35:04.448Z,3.2
2019-01-02T12:36:02.809Z,0.8
2019-01-02T12:37:04.512Z,0.79
2019-01-02T12:38:03.328Z,1.09
2019-01-02T12:39:03.110Z,0.71
2019-01-02T12:40:03.144Z,0.71
2019-01-02T12:41:04.016Z,0.91
2019-01-02T12:42:03.162Z,1.01
2019-01-02T12:43:02.960Z,0.92
2019-01-02T12:44:03.398Z,0.71
2019-01-02T12:45:03.062Z,0.87
2019-01-02T12:46:02.971Z,0.99
2019-01-02T12:47:03.017Z,0.86
2019-01-02T12:48:03.313Z,0.91
2019-01-02T12:49:02.940Z,0.85
2019-01-02T12:50:02.817Z,1.5
2019-01-02T12:51:03.532Z,1.5
2019-01-02T12:52:03.769Z,1.02
2019-01-02T12:53:03.292Z,2.01
2019-01-02T12:54:02.996Z,2.01
2019-01-02T12:55:03.807Z,2.58
2019-01-02T12:56:03.097Z,2.14
2019-01-02T12:57:03.234Z,2.14
2019-01-02T12:58:03.237Z,2.37
2019-01-02T12:59:03.385Z,2.46
2019-01-02T13:04:25.359Z,0
2019-01-02T13:08:18.706Z,0
2019-01-02T13:08:51.288Z,0
2019-01-02T13:09:31.878Z,0
2019-01-02T13:10:10.311Z,0
2019-01-02T13:11:03.177Z,3.04
2019-01-02T13:12:03.033Z,2.76
2019-01-02T13:13:03.240Z,0.89
2019-01-02T13:14:03.687Z,0.89
2019-01-02T13:15:03.052Z,0.99
2019-01-02T13:16:03.603Z,1.72
2019-01-02T13:17:03.735Z,0.82
2019-01-02T13:18:03.221Z,1.54
2019-01-02T13:19:02.885Z,1.51
2019-01-02T13:20:03.938Z,1.07
2019-01-02T13:21:03.417Z,1.42
2019-01-02T13:22:04.397Z,1.42
2019-01-02T13:23:03.628Z,1.34
2019-01-02T13:24:03.156Z,1.21
2019-01-02T13:25:03.286Z,1.86
2019-01-02T13:26:03.392Z,1.86
2019-01-02T13:27:03.198Z,1.44
2019-01-02T13:28:03.074Z,1.44
2019-01-02T13:29:04.968Z,1.3
2019-01-02T13:30:02.385Z,1.56
2019-01-02T13:31:03.148Z,1.16
2019-01-02T13:32:03.317Z,1.26
2019-01-02T13:33:02.447Z,1.68
2019-01-02T13:34:03.370Z,1.43
2019-01-02T13:35:03.639Z,1.18
2019-01-02T13:36:03.027Z,1.7
2019-01-02T13:37:03.625Z,1.85
2019-01-02T13:38:02.991Z,1.76
2019-01-02T13:39:03.263Z,1.45
2019-01-02T13:40:03.740Z,1.31
2019-01-02T13:41:03.571Z,1.69
2019-01-02T13:42:02.815Z,1.37
2019-01-02T13:43:03.503Z,1.44
2019-01-02T13:44:03.874Z,1.57
2019-01-02T13:45:03.260Z,1.18
2019-01-02T13:46:03.610Z,1.34
2019-01-02T13:47:02.997Z,1.21
2019-01-02T13:48:03.370Z,1.73
2019-01-02T13:49:03.193Z,1.48